Terminal Aerodrome Forecast
Issued by NWS

Home | Current Version | Previous Version | Text Only | Print | Product List | Glossary On
Versions: 1 2 3 4 5 6 7 8 9 10 11 12 13 14
000
FTUS45 KRIW 240524
TAFCPR
TAF
KCPR 240524Z 2406/2506 22020G30KT P6SM SCT100
     FM241500 25014KT P6SM BKN100
     FM241800 36011KT P6SM VCSH BKN050
     FM242100 01007KT P6SM -SHRA BKN030
     FM250000 VRB05KT P6SM SCT030 BKN050
     FM250300 24006KT P6SM SCT080=

USA.gov is the U.S. government's official web portal to all federal, state and local government web resources and services.